Harrold, Texas
Current Conditions -  °F | °C
As of 10:36 AM on Thursday 30 Oct 2014 (Local Time) from KF05 Reporting Station
Clear Clear  
Wind Chill: 66°   Ceiling: Unl
Heat Index: 66°   Visibility: 10mi
Dew Point: 48°   Wind: 7mph
Humidity: 52%   Direction: 210°SSW
Pressure: 30.15"   Gusts: NA
Location:  34.08°N, 99.03°W
Report Text: KF05 301536Z AUTO 21006KT 10SM CLR 19/09 A3015 RMK AO2
Loading
Personal Weather Stations






























Interactive Weather Map
Tropical Storm Tracking
New forecast layout! Learn more

10-Day Weather Forecast

Advertisements
Track Severe Weather on mobile